Terminal Aerodrome Forecast
Issued by NWS

Home | Current Version | Previous Version | Text Only | Print | Product List | Glossary On
Versions: 1 2 3 4 5 6 7 8 9 10 11 12 13 14 15 16 17 18 19 20 21 22 23 24 25 26 27
000
FTUS44 KTSA 241400 AAB
TAFBVO
TAF AMD
KBVO 241415Z 2414/2512 15008KT P6SM -RA SCT030 BKN050 OVC100
      TEMPO 2415/2418 4SM -RA BR BKN020 OVC050
     FM241800 15008KT P6SM -RA SCT020 OVC050
      TEMPO 2418/2422 4SM RA OVC015
     FM250000 00000KT P6SM -RA BKN020 OVC040
     FM250900 16002KT 5SM -RA BR BKN030 OVC050=

USA.gov is the U.S. government's official web portal to all federal, state and local government web resources and services.